Time;durP1;ratioP1;P1;durP2;ratioP2;P2;SDS_P1;SDS_P2;PMS_P1;PMS_P2;Temp;Humidity;BMP_temperature;BMP_pressure;BME280_temperature;BME280_humidity;BME280_pressure;Samples;Min_cycle;Max_cycle;Signal;HPM_P1;HPM_P2
2021/12/23 00:01:31;;;;;;;6.72;3.98;;;;;;;-7.98;57.85;100207.01;1758527;80;21083;-38
2021/12/23 00:03:58;;;;;;;6.15;4.25;;;;;;;-7.80;57.38;100196.52;1784152;80;21512;-38
2021/12/23 00:06:25;;;;;;;6.60;4.00;;;;;;;-7.80;57.38;100196.52;1789565;79;21584;-38
2021/12/23 00:08:52;;;;;;;6.83;4.17;;;;;;;-7.65;57.13;100208.00;1779155;80;21522;-38
2021/12/23 00:11:18;;;;;;;5.87;4.08;;;;;;;-7.61;56.92;100215.23;1774579;80;21024;-38
2021/12/23 00:13:58;;;;;;;6.33;3.90;;;;;;;-7.62;56.73;100209.67;1763286;79;21443;-38
2021/12/23 00:16:18;;;;;;;6.92;4.15;;;;;;;-7.62;56.73;100209.67;1781711;79;21156;-38
2021/12/23 00:18:47;;;;;;;6.30;4.20;;;;;;;-7.66;56.55;100216.41;1765716;80;21055;-38
2021/12/23 00:23:58;;;;;;;6.05;4.10;;;;;;;-7.66;56.18;100212.45;1768979;79;20985;-38
2021/12/23 00:26:25;;;;;;;7.70;4.35;;;;;;;-7.79;56.15;100216.53;1776159;80;21045;-38
2021/12/23 00:28:52;;;;;;;7.70;4.30;;;;;;;-7.79;56.15;100216.53;1760775;80;21170;-38
2021/12/23 00:31:21;;;;;;;8.45;4.03;;;;;;;-7.97;56.23;100214.70;1753314;81;21156;-38
2021/12/23 00:33:48;;;;;;;6.62;3.80;;;;;;;-8.11;56.28;100214.53;1750119;81;21082;-38
2021/12/23 00:36:14;;;;;;;9.68;4.70;;;;;;;-8.11;56.28;100214.53;1754538;81;21070;-39
2021/12/23 00:38:47;;;;;;;7.40;4.47;;;;;;;-8.16;56.56;100215.69;1749905;81;21066;-38
2021/12/23 00:41:10;;;;;;;10.40;4.37;;;;;;;-8.24;56.70;100219.11;1757696;80;21147;-38
2021/12/23 00:43:38;;;;;;;8.10;4.33;;;;;;;-8.27;56.93;100221.65;1789865;80;21511;-38
2021/12/23 00:46:06;;;;;;;5.92;4.30;;;;;;;-8.31;57.14;100211.30;1754297;80;21000;-38
2021/12/23 00:48:39;;;;;;;8.58;4.67;;;;;;;-8.32;57.10;100215.45;1750813;81;21011;-38
2021/12/23 00:51:06;;;;;;;8.75;4.42;;;;;;;-8.35;57.25;100211.44;1737489;81;21534;-38
2021/12/23 00:53:39;;;;;;;6.50;4.10;;;;;;;-8.29;57.34;100215.05;1747823;81;21211;-38
2021/12/23 00:56:05;;;;;;;7.10;4.58;;;;;;;-8.18;57.37;100213.00;1749051;81;20953;-38
2021/12/23 00:58:32;;;;;;;8.73;4.78;;;;;;;-8.09;57.04;100213.02;1737413;81;21517;-39
2021/12/23 01:01:01;;;;;;;7.50;4.67;;;;;;;-8.08;56.91;100212.77;1742029;81;21048;-38
2021/12/23 01:03:28;;;;;;;8.35;4.42;;;;;;;-8.05;56.78;100212.36;1728378;81;21112;-38
2021/12/23 01:05:55;;;;;;;8.05;4.62;;;;;;;-8.02;56.67;100215.05;1728422;81;21179;-38
2021/12/23 01:08:22;;;;;;;7.70;4.80;;;;;;;-8.02;56.67;100215.05;1747190;81;21005;-38
2021/12/23 01:10:53;;;;;;;7.90;4.67;;;;;;;-8.02;56.52;100216.36;1760483;81;21023;-38
2021/12/23 01:13:20;;;;;;;7.65;4.25;;;;;;;-7.98;56.62;100209.64;1753518;81;21728;-38
2021/12/23 01:18:42;;;;;;;6.75;4.78;;;;;;;-7.90;56.17;100208.06;1760837;81;21832;-38
2021/12/23 01:21:18;;;;;;;7.75;4.80;;;;;;;-7.81;56.11;100213.33;1737493;81;20984;-38
2021/12/23 01:23:52;;;;;;;8.40;5.37;;;;;;;-7.81;56.11;100213.33;1728723;81;20999;-38
2021/12/23 01:26:22;;;;;;;9.45;5.05;;;;;;;-7.82;55.96;100209.08;1727212;81;21624;-39
2021/12/23 01:28:56;;;;;;;10.85;5.30;;;;;;;-7.71;56.03;100218.08;1781207;79;21559;-38
2021/12/23 01:31:26;;;;;;;8.75;5.35;;;;;;;-7.69;55.79;100216.83;1776321;79;21144;-38
2021/12/23 01:33:52;;;;;;;;;;;;;;;-7.61;55.85;100215.74;1792497;80;20993;-38
2021/12/23 01:36:19;;;;;;;9.08;5.20;;;;;;;-7.59;55.65;100221.06;1745528;81;20300;-38
2021/12/23 01:38:46;;;;;;;9.10;5.58;;;;;;;-7.49;55.51;100214.77;1715543;83;21573;-38
2021/12/23 01:41:16;;;;;;;9.68;5.53;;;;;;;-7.49;55.51;100214.77;1701736;83;21092;-39
2021/12/23 01:43:42;;;;;;;8.85;5.67;;;;;;;-7.52;55.24;100212.59;1720869;83;21143;-38
2021/12/23 01:46:09;;;;;;;9.28;5.62;;;;;;;-7.50;55.30;100212.34;1715290;83;21114;-38
2021/12/23 01:48:36;;;;;;;9.80;5.60;;;;;;;-7.44;55.28;100213.30;1699132;82;21577;-38
2021/12/23 01:51:03;;;;;;;8.70;5.25;;;;;;;-7.38;54.77;100191.35;1725567;81;21080;-38
2021/12/23 01:53:30;;;;;;;10.78;5.70;;;;;;;-7.38;54.77;100191.35;1743401;81;21443;-38
2021/12/23 01:55:56;;;;;;;9.28;5.12;;;;;;;-7.25;54.59;100215.69;1749329;81;21077;-38
2021/12/23 01:58:23;;;;;;;8.18;5.35;;;;;;;-7.25;54.34;100214.88;1745691;81;21005;-38
2021/12/23 02:00:51;;;;;;;7.05;5.00;;;;;;;-7.27;54.56;100222.22;1752655;81;21126;-38
2021/12/23 02:03:17;;;;;;;9.75;5.42;;;;;;;-7.18;54.70;100228.79;1756623;81;21047;-38
2021/12/23 02:05:44;;;;;;;9.38;6.03;;;;;;;-7.18;54.70;100228.79;1736809;81;21043;-38
2021/12/23 02:08:11;;;;;;;10.13;5.70;;;;;;;-7.07;54.69;100225.41;1756468;81;22278;-38
2021/12/23 02:10:39;;;;;;;8.90;5.45;;;;;;;-7.05;54.61;100222.02;1737374;81;21174;-38
2021/12/23 02:13:05;;;;;;;11.43;6.40;;;;;;;-6.98;54.22;100224.06;1746583;81;20956;-38
2021/12/23 02:15:34;;;;;;;13.50;6.40;;;;;;;-6.98;54.22;100224.06;1740094;81;21538;-38
2021/12/23 02:18:00;;;;;;;11.12;5.78;;;;;;;-6.92;54.32;100220.52;1745853;81;21048;-38
2021/12/23 02:20:33;;;;;;;10.78;5.95;;;;;;;-6.88;54.18;100219.06;1754771;81;21141;-38
2021/12/23 02:22:59;;;;;;;11.43;6.25;;;;;;;-6.86;54.16;100222.26;1754725;81;21590;-38
2021/12/23 02:25:26;;;;;;;11.35;6.10;;;;;;;-6.86;54.19;100222.77;1755695;81;21027;-38
2021/12/23 02:27:53;;;;;;;12.10;6.72;;;;;;;-6.81;54.16;100230.30;1729572;81;21507;-38
2021/12/23 02:30:24;;;;;;;9.68;5.62;;;;;;;-6.82;54.05;100239.73;1691264;84;21108;-38
2021/12/23 02:32:52;;;;;;;7.85;5.50;;;;;;;-6.80;54.22;100235.87;1692017;84;21145;-38
2021/12/23 02:35:20;;;;;;;9.63;5.85;;;;;;;-6.76;54.22;100232.27;1688471;84;21113;-38
2021/12/23 02:37:47;;;;;;;10.35;5.87;;;;;;;-6.67;54.14;100238.30;1685861;84;21049;-38
2021/12/23 02:40:39;;;;;;;10.20;5.83;;;;;;;-6.62;53.76;100229.20;1684997;84;21099;-39
2021/12/23 02:43:22;;;;;;;8.80;5.37;;;;;;;-6.57;53.59;100231.67;1669477;84;21048;-38
2021/12/23 02:45:52;;;;;;;9.40;5.33;;;;;;;-6.54;53.28;100229.92;1692072;84;21178;-38
2021/12/23 02:48:35;;;;;;;;;;;;;;;-6.55;53.19;100236.22;1679897;84;20981;-38
2021/12/23 02:51:09;;;;;;;8.25;5.70;;;;;;;-6.63;53.19;100235.50;1690361;84;20143;-38
2021/12/23 02:53:37;;;;;;;11.90;6.05;;;;;;;-6.70;53.39;100228.73;1715709;83;21055;-38
2021/12/23 02:56:06;;;;;;;9.05;5.78;;;;;;;-6.64;53.59;100233.11;1711651;83;22102;-38
2021/12/23 02:58:33;;;;;;;10.13;5.95;;;;;;;-6.58;53.49;100224.27;1710765;83;21132;-38
2021/12/23 03:01:02;;;;;;;10.80;5.65;;;;;;;-6.50;53.39;100225.80;1702919;83;21569;-38
2021/12/23 03:03:28;;;;;;;11.08;5.28;;;;;;;-6.50;53.41;100223.97;1702798;83;21173;-38
2021/12/23 03:05:57;;;;;;;8.88;5.72;;;;;;;-6.47;53.52;100228.77;1708288;83;21072;-38
2021/12/23 03:08:35;;;;;;;9.03;5.58;;;;;;;-6.47;53.52;100228.77;1710962;83;21077;-38
2021/12/23 03:11:04;;;;;;;9.65;5.87;;;;;;;-6.42;53.31;100225.45;1709225;83;21130;-38
2021/12/23 03:13:31;;;;;;;8.48;4.97;;;;;;;-6.38;53.27;100225.28;1692737;83;20999;-38
2021/12/23 03:16:00;;;;;;;8.23;4.47;;;;;;;-6.37;53.30;100222.94;1701507;83;21601;-38
2021/12/23 03:18:26;;;;;;;10.10;5.47;;;;;;;-6.35;53.35;100226.98;1725207;83;21115;-38
2021/12/23 03:20:55;;;;;;;10.00;5.35;;;;;;;-6.30;53.41;100228.92;1705065;83;21027;-39
2021/12/23 03:23:22;;;;;;;8.90;5.55;;;;;;;-6.36;53.25;100228.00;1679144;84;21099;-39
2021/12/23 03:25:48;;;;;;;9.85;5.75;;;;;;;-6.36;53.25;100228.00;1672539;84;21585;-38
2021/12/23 03:28:15;;;;;;;7.42;4.90;;;;;;;-6.45;53.44;100225.92;1681031;83;21031;-38
2021/12/23 03:30:42;;;;;;;8.38;4.92;;;;;;;-6.52;53.38;100234.44;1691048;84;20960;-38
2021/12/23 03:33:09;;;;;;;8.23;4.60;;;;;;;-6.61;53.76;100232.14;1687571;84;21696;-39
2021/12/23 03:35:36;;;;;;;6.60;4.50;;;;;;;-6.67;53.79;100234.34;1693041;84;21148;-38
2021/12/23 03:38:03;;;;;;;6.95;4.83;;;;;;;-6.67;54.19;100230.39;1686696;84;21039;-38
2021/12/23 03:40:30;;;;;;;6.72;4.40;;;;;;;-6.63;54.47;100227.59;1687921;84;20948;-38
2021/12/23 03:42:56;;;;;;;6.33;4.53;;;;;;;-6.64;54.00;100227.84;1697668;84;21011;-38
2021/12/23 03:45:23;;;;;;;7.00;3.90;;;;;;;-6.80;54.38;100230.59;1696375;84;21928;-38
2021/12/23 03:47:50;;;;;;;7.55;4.42;;;;;;;-6.83;54.58;100233.69;1687938;84;21160;-38
2021/12/23 03:50:19;;;;;;;7.25;4.80;;;;;;;-6.95;54.81;100237.30;1689863;84;21098;-38
2021/12/23 03:52:46;;;;;;;5.85;4.20;;;;;;;-7.04;54.95;100231.54;1726303;83;21112;-39
2021/12/23 03:55:14;;;;;;;12.55;4.80;;;;;;;-7.20;55.25;100236.91;1706333;82;21031;-38
2021/12/23 03:57:41;;;;;;;5.60;4.10;;;;;;;-7.39;55.67;100234.52;1708467;82;21079;-38
2021/12/23 04:00:12;;;;;;;6.40;4.28;;;;;;;-7.50;56.05;100232.91;1716410;83;21138;-39
2021/12/23 04:02:39;;;;;;;7.17;4.55;;;;;;;-7.56;56.36;100242.22;1715183;83;21225;-38
2021/12/23 04:05:08;;;;;;;6.53;4.50;;;;;;;-7.59;56.51;100231.59;1724396;83;21534;-38
2021/12/23 04:07:36;;;;;;;8.35;4.35;;;;;;;-7.65;56.75;100241.69;1716758;83;21076;-38
2021/12/23 04:10:05;;;;;;;8.53;4.55;;;;;;;-7.58;56.86;100238.48;1713674;82;21088;-38
2021/12/23 04:12:32;;;;;;;3.70;3.25;;;;;;;-7.52;56.63;100236.80;1716174;82;21137;-39
2021/12/23 04:14:59;;;;;;;7.45;4.67;;;;;;;-7.47;56.70;100238.27;1701440;82;21533;-39
2021/12/23 04:17:26;;;;;;;8.35;4.53;;;;;;;-7.47;56.52;100236.44;1711202;82;21048;-38
2021/12/23 04:19:59;;;;;;;6.15;3.98;;;;;;;-7.64;56.41;100238.54;1716419;83;21077;-38
2021/12/23 04:22:22;;;;;;;7.87;3.95;;;;;;;-7.76;56.87;100241.11;1724931;82;21625;-38
2021/12/23 04:24:48;;;;;;;7.90;3.98;;;;;;;-7.79;56.90;100242.84;1712583;82;21943;-38
2021/12/23 04:27:15;;;;;;;7.83;4.17;;;;;;;-8.07;57.20;100233.31;1726608;81;21039;-38
2021/12/23 04:29:42;;;;;;;5.08;3.70;;;;;;;-8.07;57.20;100233.31;1718251;82;21027;-38
2021/12/23 04:32:08;;;;;;;8.58;4.28;;;;;;;-8.14;57.36;100247.86;1714534;83;21007;-38
2021/12/23 04:34:35;;;;;;;6.55;3.83;;;;;;;-8.23;57.44;100243.89;1728733;82;21568;-38
2021/12/23 04:37:02;;;;;;;5.87;3.80;;;;;;;-8.28;57.85;100250.30;1719237;82;21157;-38
2021/12/23 04:39:29;;;;;;;5.83;3.92;;;;;;;-8.28;57.85;100250.30;1730278;82;21213;-38
2021/12/23 04:41:56;;;;;;;7.87;4.10;;;;;;;-8.36;58.33;100250.08;1721858;82;21585;-38
2021/12/23 04:44:22;;;;;;;5.53;4.15;;;;;;;-8.36;58.33;100250.08;1717492;82;21098;-38
2021/12/23 04:46:49;;;;;;;7.47;3.80;;;;;;;-8.37;58.50;100249.78;1726207;82;21087;-39
2021/12/23 04:49:16;;;;;;;9.28;3.87;;;;;;;-8.46;58.57;100262.09;1698972;82;21140;-38
2021/12/23 04:51:42;;;;;;;7.08;4.28;;;;;;;-8.56;58.79;100257.81;1701296;82;21560;-38
2021/12/23 04:54:09;;;;;;;8.35;5.08;;;;;;;-8.60;59.17;100261.37;1702168;82;21103;-38
2021/12/23 04:56:36;;;;;;;6.62;4.42;;;;;;;-8.55;59.14;100260.23;1717114;82;21044;-38
2021/12/23 04:59:03;;;;;;;7.70;4.60;;;;;;;-8.48;59.14;100257.06;1716398;83;21623;-38
2021/12/23 05:01:31;;;;;;;8.23;4.33;;;;;;;-8.42;59.08;100262.76;1723479;83;21947;-38
2021/12/23 05:03:58;;;;;;;5.37;3.40;;;;;;;-8.38;58.92;100265.28;1694482;84;21080;-38
2021/12/23 05:06:26;;;;;;;7.95;4.50;;;;;;;-8.36;58.69;100263.23;1684369;84;20986;-38
2021/12/23 05:08:53;;;;;;;7.90;4.03;;;;;;;-8.34;58.72;100260.39;1690288;84;21537;-38
2021/12/23 05:11:20;;;;;;;6.78;4.37;;;;;;;-8.31;58.69;100261.27;1683051;84;21036;-38
2021/12/23 05:13:49;;;;;;;6.20;4.12;;;;;;;-8.29;58.64;100260.53;1684878;84;21203;-38
2021/12/23 05:16:17;;;;;;;7.08;4.37;;;;;;;-8.34;58.60;100260.90;1671087;84;21148;-38
2021/12/23 05:18:45;;;;;;;6.12;4.15;;;;;;;-8.43;58.79;100261.17;1683516;84;21044;-38
2021/12/23 05:21:11;;;;;;;7.97;3.85;;;;;;;-8.52;59.07;100259.80;1675177;84;21120;-38
2021/12/23 05:23:39;;;;;;;7.65;4.00;;;;;;;-8.59;59.32;100263.00;1690417;82;21558;-38
2021/12/23 05:26:07;;;;;;;7.35;4.05;;;;;;;-8.68;59.43;100256.89;1679971;84;21145;-38
2021/12/23 05:28:36;;;;;;;7.58;3.83;;;;;;;-8.82;60.02;100251.73;1690649;84;21032;-38
2021/12/23 05:31:04;;;;;;;6.30;3.77;;;;;;;-8.82;60.02;100251.73;1693883;84;20940;-38
2021/12/23 05:33:32;;;;;;;6.90;4.10;;;;;;;-8.81;59.93;100255.17;1693947;84;21055;-38
2021/12/23 05:35:59;;;;;;;15.55;6.30;;;;;;;-8.93;59.79;100260.27;1692937;84;21150;-38
2021/12/23 05:38:25;;;;;;;7.55;4.20;;;;;;;-9.13;60.11;100256.12;1710578;83;21090;-38
2021/12/23 05:40:52;;;;;;;8.38;4.17;;;;;;;-9.28;60.41;100265.59;1708111;82;21063;-38
2021/12/23 05:43:19;;;;;;;7.28;3.80;;;;;;;-9.40;60.86;100268.07;1700011;83;21103;-38
2021/12/23 05:45:45;;;;;;;5.50;3.90;;;;;;;-9.39;61.10;100273.59;1711307;83;21065;-38
2021/12/23 05:48:12;;;;;;;7.78;4.30;;;;;;;-9.32;61.20;100268.33;1706672;83;21087;-38
2021/12/23 05:50:38;;;;;;;6.60;3.80;;;;;;;-9.21;61.13;100270.82;1700068;82;21971;-38
2021/12/23 05:53:05;;;;;;;4.30;3.58;;;;;;;-9.17;60.86;100274.64;1715975;82;20997;-38
2021/12/23 05:55:32;;;;;;;5.40;3.50;;;;;;;-9.14;60.90;100271.08;1703869;82;21080;-38
2021/12/23 05:57:59;;;;;;;6.20;3.35;;;;;;;-9.10;60.58;100271.48;1708494;82;20992;-38
2021/12/23 06:00:31;;;;;;;5.08;3.42;;;;;;;-9.10;60.35;100276.74;1722098;83;21040;-38
2021/12/23 06:02:59;;;;;;;6.10;3.72;;;;;;;-9.04;60.34;100269.31;1717495;83;21124;-38
2021/12/23 06:05:26;;;;;;;4.58;3.30;;;;;;;-9.01;60.01;100267.60;1709165;82;21686;-38
2021/12/23 06:07:53;;;;;;;6.20;3.47;;;;;;;-9.09;59.87;100269.95;1711664;82;21294;-37
2021/12/23 06:10:20;;;;;;;8.65;4.15;;;;;;;-9.17;59.95;100264.94;1706959;83;21035;-38
2021/12/23 06:12:47;;;;;;;5.30;3.42;;;;;;;-9.20;59.99;100269.81;1710785;82;21103;-38
2021/12/23 06:15:14;;;;;;;6.72;4.03;;;;;;;-9.18;59.98;100271.20;1708743;82;21113;-38
2021/12/23 06:17:41;;;;;;;5.70;3.20;;;;;;;-9.15;60.02;100273.93;1724492;83;21036;-38
2021/12/23 06:20:11;;;;;;;5.05;3.52;;;;;;;-9.07;59.89;100281.56;1710303;82;21553;-38
2021/12/23 06:22:38;;;;;;;;;;;;;;;-9.10;59.63;100276.20;1706182;82;21031;-38
2021/12/23 06:25:07;;;;;;;9.75;4.45;;;;;;;-9.20;59.71;100275.06;1717777;82;20459;-38
2021/12/23 06:27:34;;;;;;;5.12;3.47;;;;;;;-9.38;59.90;100283.09;1736737;81;21124;-38
2021/12/23 06:30:01;;;;;;;6.85;3.60;;;;;;;-9.48;60.20;100284.03;1731353;81;21001;-38
2021/12/23 06:32:29;;;;;;;10.82;5.50;;;;;;;-9.55;60.36;100288.50;1743926;81;21122;-38
2021/12/23 06:34:56;;;;;;;6.10;4.03;;;;;;;-9.64;60.48;100283.69;1675073;84;21582;-38
2021/12/23 06:37:23;;;;;;;7.20;3.37;;;;;;;-9.73;60.60;100293.59;1689202;84;21983;-39
2021/12/23 06:39:49;;;;;;;10.50;3.27;;;;;;;-9.84;60.77;100287.66;1689413;84;21200;-38
2021/12/23 06:42:16;;;;;;;6.47;3.98;;;;;;;-9.94;60.99;100284.64;1689251;84;20975;-38
2021/12/23 06:44:43;;;;;;;8.03;3.55;;;;;;;-9.99;61.26;100287.06;1690732;84;21000;-38
2021/12/23 06:47:10;;;;;;;6.60;3.40;;;;;;;-10.00;61.26;100284.13;1711153;83;21108;-38
2021/12/23 06:49:37;;;;;;;6.10;4.17;;;;;;;-10.01;61.43;100283.83;1706534;83;21083;-38
2021/12/23 06:52:04;;;;;;;6.03;4.20;;;;;;;-9.99;61.59;100286.56;1706029;83;21808;-37
2021/12/23 06:54:32;;;;;;;7.35;3.62;;;;;;;-9.98;61.59;100287.38;1697060;83;21068;-38
2021/12/23 06:56:59;;;;;;;6.58;3.65;;;;;;;-9.99;61.49;100288.37;1698037;83;21022;-38
2021/12/23 06:59:27;;;;;;;9.10;4.33;;;;;;;-9.96;61.61;100287.95;1713387;82;21049;-38
2021/12/23 07:01:53;;;;;;;7.87;3.92;;;;;;;-9.95;61.47;100290.89;1702842;82;21051;-38
2021/12/23 07:04:23;;;;;;;7.12;4.00;;;;;;;-9.94;61.49;100283.33;1729600;81;21637;-38
2021/12/23 07:06:59;;;;;;;7.00;4.30;;;;;;;-9.88;61.37;100283.83;1699264;82;21597;-38
2021/12/23 07:09:21;;;;;;;9.40;5.60;;;;;;;-9.84;61.21;100277.16;1725652;81;21060;-38
2021/12/23 07:11:47;;;;;;;8.15;4.50;;;;;;;-9.83;60.97;100282.72;1724395;82;21635;-38
2021/12/23 07:14:14;;;;;;;6.08;3.80;;;;;;;-9.83;60.86;100283.53;1719002;82;21068;-38
2021/12/23 07:16:42;;;;;;;8.70;5.37;;;;;;;-9.80;60.69;100287.55;1724103;82;21145;-38
2021/12/23 07:19:08;;;;;;;8.33;4.95;;;;;;;-9.77;60.65;100287.94;1711838;82;21087;-38
2021/12/23 07:21:36;;;;;;;10.45;6.00;;;;;;;-9.71;60.43;100283.69;1717603;82;21044;-38
2021/12/23 07:24:03;;;;;;;10.35;5.28;;;;;;;-9.66;60.43;100287.81;1730113;82;21542;-38
2021/12/23 07:26:31;;;;;;;10.43;6.10;;;;;;;-9.57;60.31;100282.64;1734621;82;21573;-38
2021/12/23 07:28:57;;;;;;;31.57;14.50;;;;;;;-9.49;60.02;100279.81;1722581;82;21807;-38
2021/12/23 07:31:24;;;;;;;12.80;5.62;;;;;;;-9.41;59.85;100284.83;1714666;82;21653;-38
2021/12/23 07:33:51;;;;;;;8.43;4.33;;;;;;;-9.31;59.54;100276.52;1728101;82;21099;-38
2021/12/23 07:36:20;;;;;;;6.12;4.22;;;;;;;-9.27;59.10;100270.64;1722829;82;21075;-38
2021/12/23 07:38:47;;;;;;;7.33;4.47;;;;;;;-9.28;58.91;100282.15;1722914;82;21048;-38
2021/12/23 07:41:14;;;;;;;8.63;4.17;;;;;;;-9.27;58.83;100271.95;1718086;82;21163;-38
2021/12/23 07:46:07;;;;;;;9.30;4.78;;;;;;;-9.26;58.66;100264.88;1720106;82;21096;-38
2021/12/23 07:48:34;;;;;;;15.48;8.95;;;;;;;-9.18;58.85;100265.14;1710296;82;21917;-38
2021/12/23 07:51:02;;;;;;;10.53;5.87;;;;;;;-9.18;58.85;100263.83;1718300;82;21552;-38
2021/12/23 07:53:29;;;;;;;10.93;6.70;;;;;;;-9.10;58.68;100258.36;1723652;82;21178;-38
2021/12/23 07:55:56;;;;;;;10.28;4.92;;;;;;;-9.04;58.50;100256.98;1721453;82;20975;-38
2021/12/23 07:58:23;;;;;;;43.87;13.40;;;;;;;-8.93;58.41;100255.52;1718887;82;21024;-38
2021/12/23 08:00:50;;;;;;;16.55;6.10;;;;;;;-8.83;58.01;100253.25;1710342;82;21249;-38
2021/12/23 08:03:16;;;;;;;20.75;8.73;;;;;;;-8.77;57.81;100251.09;1714869;82;21606;-38
2021/12/23 08:05:43;;;;;;;11.73;5.65;;;;;;;-8.72;57.60;100248.64;1733320;82;21145;-38
2021/12/23 08:08:10;;;;;;;61.77;22.65;;;;;;;-8.66;57.48;100253.53;1722471;82;21067;-38
2021/12/23 08:10:37;;;;;;;24.45;11.73;;;;;;;-8.58;57.26;100251.47;1730008;82;21501;-38
2021/12/23 08:13:04;;;;;;;11.48;7.10;;;;;;;-8.46;56.88;100247.63;1710364;82;21813;-38
2021/12/23 08:15:32;;;;;;;40.50;18.02;;;;;;;-8.39;56.52;100245.77;1711573;82;21002;-38
2021/12/23 08:17:59;;;;;;;15.85;7.80;;;;;;;-8.37;56.45;100252.41;1725840;82;21162;-38
2021/12/23 08:20:25;;;;;;;13.20;7.65;;;;;;;-8.27;56.13;100245.83;1710401;82;21513;-38
2021/12/23 08:22:52;;;;;;;11.68;6.45;;;;;;;-8.24;55.95;100244.91;1710517;82;21032;-38
2021/12/23 08:25:19;;;;;;;41.53;16.05;;;;;;;-8.21;55.77;100238.40;1722517;82;21061;-38
2021/12/23 08:27:46;;;;;;;30.32;11.43;;;;;;;-8.16;55.45;100238.55;1708997;82;21020;-38
2021/12/23 08:30:14;;;;;;;56.33;18.80;;;;;;;-8.16;55.45;100238.55;1702821;84;21815;-38
2021/12/23 08:32:41;;;;;;;48.10;16.07;;;;;;;-8.01;55.53;100239.03;1702973;84;21044;-38
2021/12/23 08:35:09;;;;;;;78.00;32.63;;;;;;;-7.85;55.17;100234.53;1702510;84;21032;-38
2021/12/23 08:37:39;;;;;;;29.95;13.78;;;;;;;-7.54;54.28;100233.56;1702510;84;21107;-38
2021/12/23 08:40:08;;;;;;;14.73;7.25;;;;;;;-7.54;54.28;100233.56;1703060;84;21917;-38
2021/12/23 08:42:36;;;;;;;;;;;;;;;-7.52;54.15;100224.95;1705572;84;21143;-38
2021/12/23 08:45:05;;;;;;;25.55;11.95;;;;;;;-7.59;53.75;100230.28;1707970;82;20089;-38
2021/12/23 08:47:33;;;;;;;11.80;6.85;;;;;;;-7.74;53.90;100224.57;1717630;82;21095;-38
2021/12/23 08:50:00;;;;;;;15.93;9.95;;;;;;;-7.70;53.85;100219.70;1691396;84;21048;-38
2021/12/23 08:52:26;;;;;;;18.95;10.68;;;;;;;-7.63;54.14;100217.27;1702142;82;21108;-38
2021/12/23 08:54:53;;;;;;;17.12;10.35;;;;;;;-7.63;54.14;100217.27;1719642;82;21147;-38
2021/12/23 08:57:21;;;;;;;20.72;10.20;;;;;;;-7.55;53.89;100209.06;1726398;83;21037;-38
2021/12/23 08:59:47;;;;;;;19.07;9.85;;;;;;;-7.54;53.64;100209.87;1717202;82;20948;-37
2021/12/23 09:02:15;;;;;;;12.33;7.75;;;;;;;-7.48;53.71;100205.05;1716399;83;21030;-39
2021/12/23 09:04:42;;;;;;;18.77;11.43;;;;;;;-7.52;53.69;100199.42;1702270;83;21078;-38
2021/12/23 09:07:11;;;;;;;18.12;9.70;;;;;;;-7.53;53.95;100197.81;1720837;83;21213;-38
2021/12/23 09:09:37;;;;;;;15.13;9.45;;;;;;;-7.58;54.03;100189.77;1705662;83;21671;-38
2021/12/23 09:12:07;;;;;;;14.33;8.18;;;;;;;-7.87;54.70;100193.14;1698416;83;21054;-38
2021/12/23 09:14:34;;;;;;;11.83;7.45;;;;;;;-7.87;54.70;100193.14;1713913;82;20970;-38
2021/12/23 09:17:02;;;;;;;16.70;8.50;;;;;;;-7.94;55.10;100192.42;1702932;82;21026;-38
2021/12/23 09:19:30;;;;;;;11.40;7.67;;;;;;;-7.99;55.21;100187.01;1724013;83;21907;-38
2021/12/23 09:21:57;;;;;;;12.65;7.67;;;;;;;-8.29;55.68;100192.69;1725727;83;21037;-38
2021/12/23 09:24:26;;;;;;;12.28;8.15;;;;;;;-8.29;55.68;100192.69;1711888;83;21165;-37
2021/12/23 09:26:59;;;;;;;12.13;8.15;;;;;;;-8.49;56.08;100187.09;1724852;81;21517;-37
2021/12/23 09:34:51;;;;;;;12.50;7.28;;;;;;;-8.71;57.35;100191.09;1715769;83;21860;-38
2021/12/23 09:37:18;;;;;;;15.72;9.10;;;;;;;-8.81;57.99;100188.16;1719855;82;21101;-38
2021/12/23 09:39:45;;;;;;;17.48;10.90;;;;;;;-8.88;58.54;100179.51;1720964;82;21561;-37
2021/12/23 09:42:12;;;;;;;18.02;9.95;;;;;;;-8.89;58.63;100180.52;1714644;83;21066;-38
2021/12/23 09:44:41;;;;;;;18.23;9.05;;;;;;;-8.87;58.78;100176.67;1725470;83;21541;-38
2021/12/23 09:47:08;;;;;;;18.30;10.13;;;;;;;-8.86;58.78;100170.38;1705910;83;21125;-38
2021/12/23 09:49:34;;;;;;;18.35;10.03;;;;;;;-8.84;58.75;100166.23;1712540;83;21062;-38
2021/12/23 09:52:04;;;;;;;15.93;9.60;;;;;;;-8.76;58.68;100163.88;1725998;83;21532;-38
2021/12/23 09:54:30;;;;;;;32.88;13.85;;;;;;;-8.66;58.56;100159.72;1722010;83;21050;-38
2021/12/23 09:56:57;;;;;;;17.50;9.98;;;;;;;-8.63;58.31;100150.11;1710320;83;21128;-38
2021/12/23 09:59:27;;;;;;;15.95;9.50;;;;;;;-8.56;58.12;100152.66;1707330;83;21643;-38
2021/12/23 10:01:55;;;;;;;16.57;9.60;;;;;;;-8.50;57.92;100149.98;1723849;83;21029;-38
2021/12/23 10:04:21;;;;;;;15.38;9.08;;;;;;;-8.50;57.92;100149.98;1703283;82;21085;-38
2021/12/23 10:06:51;;;;;;;15.83;10.15;;;;;;;-8.40;57.77;100148.98;1721460;83;21013;-38
2021/12/23 10:09:39;;;;;;;15.85;9.53;;;;;;;-8.29;57.79;100145.34;1717770;83;21152;-38
2021/12/23 10:12:54;;;;;;;29.50;13.35;;;;;;;-8.20;57.29;100141.38;1712641;83;20986;-38
2021/12/23 10:31:39;;;;;;;29.23;13.83;;;;;;;-7.73;56.21;100120.90;1726478;83;21547;-37
2021/12/23 10:39:46;;;;;;;16.65;10.45;;;;;;;-7.37;55.77;100109.50;1726280;82;20945;-37
2021/12/23 10:42:21;;;;;;;17.25;10.70;;;;;;;-7.26;55.24;100107.94;1726586;83;20937;-37
2021/12/23 10:44:57;;;;;;;16.20;9.90;;;;;;;-7.27;55.12;100105.00;1724843;82;21833;-36
2021/12/23 10:47:41;;;;;;;14.55;9.90;;;;;;;-7.24;55.40;100093.49;1721335;83;22118;-37
2021/12/23 10:50:49;;;;;;;16.75;9.70;;;;;;;-7.17;55.24;100094.21;1726366;82;20973;-37
2021/12/23 10:53:35;;;;;;;26.62;15.48;;;;;;;-7.15;54.97;100097.91;1726448;82;21033;-37
2021/12/23 10:59:15;;;;;;;60.70;27.85;;;;;;;-7.21;55.44;100095.66;1726382;83;21135;-37
2021/12/23 11:02:19;;;;;;;24.57;13.15;;;;;;;-7.04;55.46;100097.14;1734364;80;20996;-37
2021/12/23 11:05:15;;;;;;;18.42;11.22;;;;;;;-6.57;54.21;100093.22;1756243;81;21000;-37
2021/12/23 11:08:00;;;;;;;16.30;10.15;;;;;;;-6.57;54.21;100093.22;1753312;81;21036;-37
2021/12/23 11:36:03;;;;;;;15.48;10.65;;;;;;;-6.13;52.95;100070.18;1694172;84;21002;-37
2021/12/23 11:40:55;;;;;;;17.17;10.98;;;;;;;-5.99;52.72;100063.60;1634445;84;21706;-38
2021/12/23 11:43:30;;;;;;;17.90;11.25;;;;;;;-5.91;52.26;100061.94;1706357;84;21048;-37
2021/12/23 11:45:54;;;;;;;19.02;11.05;;;;;;;-5.91;52.19;100060.61;1706348;84;20970;-38
2021/12/23 11:48:21;;;;;;;16.15;11.38;;;;;;;-5.96;52.30;100061.83;1706949;84;21741;-37
2021/12/23 11:53:29;;;;;;;15.38;10.98;;;;;;;-5.98;52.51;100062.57;1686699;81;21154;-37
2021/12/23 11:55:56;;;;;;;15.18;10.82;;;;;;;-5.98;52.51;100063.89;1742744;81;21915;-37
2021/12/23 11:58:24;;;;;;;16.05;10.75;;;;;;;-5.91;52.34;100064.58;1742724;82;21004;-37
2021/12/23 12:01:06;;;;;;;17.52;12.03;;;;;;;-5.93;52.29;100055.27;1742931;82;20975;-37
2021/12/23 12:04:02;;;;;;;25.70;14.60;;;;;;;-5.95;52.29;100050.21;1742912;81;21001;-37
2021/12/23 12:06:45;;;;;;;21.07;12.58;;;;;;;-6.00;52.47;100050.11;1742129;81;21128;-38
2021/12/23 12:09:31;;;;;;;18.60;12.98;;;;;;;-6.12;52.45;100045.40;1742509;82;20953;-37
2021/12/23 12:12:11;;;;;;;17.15;10.10;;;;;;;-6.30;53.05;100052.16;1742861;82;21583;-37
2021/12/23 12:14:45;;;;;;;19.55;12.23;;;;;;;-6.53;53.32;100056.16;1742869;82;21090;-38
2021/12/23 12:17:34;;;;;;;17.20;11.93;;;;;;;-6.81;54.03;100050.23;1742836;82;21579;-37
2021/12/23 12:20:22;;;;;;;19.60;11.90;;;;;;;-7.00;54.48;100044.27;1706593;84;21246;-37
2021/12/23 12:22:51;;;;;;;19.07;11.22;;;;;;;-7.12;54.70;100046.11;1742559;81;20942;-37
2021/12/23 12:25:29;;;;;;;22.20;12.73;;;;;;;-7.22;55.32;100049.30;1706797;83;22083;-37
2021/12/23 12:28:01;;;;;;;20.48;11.45;;;;;;;-7.28;55.53;100048.88;1742954;82;21068;-37
2021/12/23 12:31:10;;;;;;;20.35;12.35;;;;;;;-7.36;55.90;100048.41;1742889;82;21483;-37
2021/12/23 12:33:41;;;;;;;29.20;17.23;;;;;;;-7.41;56.14;100050.41;1733125;82;21108;-37
2021/12/23 12:36:15;;;;;;;197.93;80.55;;;;;;;-7.53;56.63;100045.61;1742905;81;21030;-37
2021/12/23 12:38:50;;;;;;;440.55;205.90;;;;;;;-7.53;56.63;100045.61;1742822;82;21017;-37
2021/12/23 12:41:28;;;;;;;118.72;63.30;;;;;;;-7.54;56.62;100052.70;1743303;82;21005;-37